sensor_id;sensor_type;location;lat;lon;timestamp;P1;durP1;ratioP1;P2;durP2;ratioP2
46158;SDS011;31888;44.512;26.104;2023-05-01T00:01:11;18.00;;;11.25;;
46158;SDS011;31888;44.512;26.104;2023-05-01T00:03:36;19.02;;;12.68;;
46158;SDS011;31888;44.512;26.104;2023-05-01T00:06:01;18.77;;;11.77;;
46158;SDS011;31888;44.512;26.104;2023-05-01T00:08:31;19.15;;;13.68;;
46158;SDS011;31888;44.512;26.104;2023-05-01T00:10:56;19.02;;;13.68;;
46158;SDS011;31888;44.512;26.104;2023-05-01T00:13:25;21.53;;;14.27;;
46158;SDS011;31888;44.512;26.104;2023-05-01T00:15:50;22.45;;;15.15;;
46158;SDS011;31888;44.512;26.104;2023-05-01T00:18:15;24.77;;;15.90;;
46158;SDS011;31888;44.512;26.104;2023-05-01T00:20:40;23.42;;;15.35;;
46158;SDS011;31888;44.512;26.104;2023-05-01T00:23:05;26.80;;;15.88;;
46158;SDS011;31888;44.512;26.104;2023-05-01T00:25:32;21.67;;;15.98;;
46158;SDS011;31888;44.512;26.104;2023-05-01T00:27:56;24.88;;;15.68;;
46158;SDS011;31888;44.512;26.104;2023-05-01T00:30:21;25.00;;;15.85;;
46158;SDS011;31888;44.512;26.104;2023-05-01T00:32:46;22.80;;;14.82;;
46158;SDS011;31888;44.512;26.104;2023-05-01T00:35:11;22.90;;;14.75;;
46158;SDS011;31888;44.512;26.104;2023-05-01T00:37:36;20.45;;;13.57;;
46158;SDS011;31888;44.512;26.104;2023-05-01T00:40:05;22.40;;;14.55;;
46158;SDS011;31888;44.512;26.104;2023-05-01T00:42:35;24.90;;;14.38;;
46158;SDS011;31888;44.512;26.104;2023-05-01T00:45:01;24.35;;;15.90;;
46158;SDS011;31888;44.512;26.104;2023-05-01T00:47:27;26.17;;;16.60;;
46158;SDS011;31888;44.512;26.104;2023-05-01T00:49:53;25.02;;;16.58;;
46158;SDS011;31888;44.512;26.104;2023-05-01T00:52:19;27.73;;;17.42;;
46158;SDS011;31888;44.512;26.104;2023-05-01T00:54:43;24.40;;;17.45;;
46158;SDS011;31888;44.512;26.104;2023-05-01T00:57:13;30.15;;;18.98;;
46158;SDS011;31888;44.512;26.104;2023-05-01T00:59:39;25.48;;;16.77;;
46158;SDS011;31888;44.512;26.104;2023-05-01T01:02:07;25.88;;;16.67;;
46158;SDS011;31888;44.512;26.104;2023-05-01T01:04:33;27.33;;;15.88;;
46158;SDS011;31888;44.512;26.104;2023-05-01T01:07:03;26.13;;;16.55;;
46158;SDS011;31888;44.512;26.104;2023-05-01T01:09:37;23.05;;;14.43;;
46158;SDS011;31888;44.512;26.104;2023-05-01T01:12:14;22.20;;;14.68;;
46158;SDS011;31888;44.512;26.104;2023-05-01T01:14:50;27.70;;;15.23;;
46158;SDS011;31888;44.512;26.104;2023-05-01T01:17:23;27.38;;;17.15;;
46158;SDS011;31888;44.512;26.104;2023-05-01T01:22:57;32.70;;;18.90;;
46158;SDS011;31888;44.512;26.104;2023-05-01T01:25:45;31.05;;;18.73;;
46158;SDS011;31888;44.512;26.104;2023-05-01T01:31:28;26.63;;;18.27;;
46158;SDS011;31888;44.512;26.104;2023-05-01T01:34:01;27.75;;;17.33;;
46158;SDS011;31888;44.512;26.104;2023-05-01T01:36:38;30.73;;;18.20;;
46158;SDS011;31888;44.512;26.104;2023-05-01T01:39:21;27.48;;;16.30;;
46158;SDS011;31888;44.512;26.104;2023-05-01T01:41:50;27.83;;;15.82;;
46158;SDS011;31888;44.512;26.104;2023-05-01T01:44:18;23.83;;;15.80;;
46158;SDS011;31888;44.512;26.104;2023-05-01T01:46:48;24.38;;;15.80;;
46158;SDS011;31888;44.512;26.104;2023-05-01T01:49:18;23.90;;;15.65;;
46158;SDS011;31888;44.512;26.104;2023-05-01T01:51:46;27.73;;;16.55;;
46158;SDS011;31888;44.512;26.104;2023-05-01T01:54:11;23.27;;;15.05;;
46158;SDS011;31888;44.512;26.104;2023-05-01T01:56:42;25.38;;;15.57;;
46158;SDS011;31888;44.512;26.104;2023-05-01T01:59:09;26.08;;;15.50;;
46158;SDS011;31888;44.512;26.104;2023-05-01T02:01:35;26.95;;;15.43;;
46158;SDS011;31888;44.512;26.104;2023-05-01T02:04:02;21.77;;;15.05;;
46158;SDS011;31888;44.512;26.104;2023-05-01T02:06:31;22.55;;;14.95;;
46158;SDS011;31888;44.512;26.104;2023-05-01T02:08:57;22.80;;;15.13;;
46158;SDS011;31888;44.512;26.104;2023-05-01T02:11:24;23.55;;;15.68;;
46158;SDS011;31888;44.512;26.104;2023-05-01T02:13:52;23.60;;;15.32;;
46158;SDS011;31888;44.512;26.104;2023-05-01T02:16:38;22.77;;;14.38;;
46158;SDS011;31888;44.512;26.104;2023-05-01T02:19:04;20.55;;;14.68;;
46158;SDS011;31888;44.512;26.104;2023-05-01T02:21:29;21.58;;;13.93;;
46158;SDS011;31888;44.512;26.104;2023-05-01T02:23:57;20.20;;;13.75;;
46158;SDS011;31888;44.512;26.104;2023-05-01T02:26:24;22.88;;;14.27;;
46158;SDS011;31888;44.512;26.104;2023-05-01T02:28:51;21.30;;;13.40;;
46158;SDS011;31888;44.512;26.104;2023-05-01T02:31:17;26.10;;;12.85;;
46158;SDS011;31888;44.512;26.104;2023-05-01T02:33:43;16.65;;;12.32;;
46158;SDS011;31888;44.512;26.104;2023-05-01T02:36:08;21.23;;;13.18;;
46158;SDS011;31888;44.512;26.104;2023-05-01T02:38:36;18.35;;;11.90;;
46158;SDS011;31888;44.512;26.104;2023-05-01T02:41:01;20.63;;;13.20;;
46158;SDS011;31888;44.512;26.104;2023-05-01T02:43:27;17.77;;;12.55;;
46158;SDS011;31888;44.512;26.104;2023-05-01T02:45:54;19.60;;;13.82;;
46158;SDS011;31888;44.512;26.104;2023-05-01T02:48:22;21.35;;;13.98;;
46158;SDS011;31888;44.512;26.104;2023-05-01T02:50:50;20.13;;;13.53;;
46158;SDS011;31888;44.512;26.104;2023-05-01T02:53:17;17.65;;;11.65;;
46158;SDS011;31888;44.512;26.104;2023-05-01T02:55:47;19.52;;;12.40;;
46158;SDS011;31888;44.512;26.104;2023-05-01T02:58:15;19.80;;;12.90;;
46158;SDS011;31888;44.512;26.104;2023-05-01T03:00:41;17.65;;;11.68;;
46158;SDS011;31888;44.512;26.104;2023-05-01T03:03:06;20.40;;;12.68;;
46158;SDS011;31888;44.512;26.104;2023-05-01T03:05:33;22.80;;;12.95;;
46158;SDS011;31888;44.512;26.104;2023-05-01T03:07:58;24.05;;;14.52;;
46158;SDS011;31888;44.512;26.104;2023-05-01T03:10:23;23.55;;;12.75;;
46158;SDS011;31888;44.512;26.104;2023-05-01T03:12:49;21.08;;;12.45;;
46158;SDS011;31888;44.512;26.104;2023-05-01T03:15:17;21.25;;;13.40;;
46158;SDS011;31888;44.512;26.104;2023-05-01T03:17:46;21.10;;;13.07;;
46158;SDS011;31888;44.512;26.104;2023-05-01T03:20:11;21.70;;;13.75;;
46158;SDS011;31888;44.512;26.104;2023-05-01T03:22:36;24.85;;;14.35;;
46158;SDS011;31888;44.512;26.104;2023-05-01T03:25:02;23.65;;;14.88;;
46158;SDS011;31888;44.512;26.104;2023-05-01T03:27:27;27.58;;;16.45;;
46158;SDS011;31888;44.512;26.104;2023-05-01T03:29:53;20.42;;;13.30;;
46158;SDS011;31888;44.512;26.104;2023-05-01T03:32:19;19.55;;;13.55;;
46158;SDS011;31888;44.512;26.104;2023-05-01T03:34:46;23.65;;;13.98;;
46158;SDS011;31888;44.512;26.104;2023-05-01T03:37:12;21.73;;;12.93;;
46158;SDS011;31888;44.512;26.104;2023-05-01T03:39:39;18.48;;;13.10;;
46158;SDS011;31888;44.512;26.104;2023-05-01T03:42:26;16.35;;;12.00;;
46158;SDS011;31888;44.512;26.104;2023-05-01T03:44:57;21.73;;;13.25;;
46158;SDS011;31888;44.512;26.104;2023-05-01T03:47:26;22.35;;;14.25;;
46158;SDS011;31888;44.512;26.104;2023-05-01T03:49:51;18.38;;;12.77;;
46158;SDS011;31888;44.512;26.104;2023-05-01T03:52:16;19.50;;;14.27;;
46158;SDS011;31888;44.512;26.104;2023-05-01T03:54:41;18.38;;;13.23;;
46158;SDS011;31888;44.512;26.104;2023-05-01T03:57:20;20.02;;;12.50;;
46158;SDS011;31888;44.512;26.104;2023-05-01T03:59:45;20.83;;;13.48;;
46158;SDS011;31888;44.512;26.104;2023-05-01T04:02:13;24.00;;;14.10;;
46158;SDS011;31888;44.512;26.104;2023-05-01T04:04:40;18.65;;;12.40;;
46158;SDS011;31888;44.512;26.104;2023-05-01T04:07:04;21.58;;;13.57;;
46158;SDS011;31888;44.512;26.104;2023-05-01T04:09:29;21.50;;;13.35;;
46158;SDS011;31888;44.512;26.104;2023-05-01T04:11:54;30.08;;;13.18;;
46158;SDS011;31888;44.512;26.104;2023-05-01T04:14:19;21.52;;;11.93;;
46158;SDS011;31888;44.512;26.104;2023-05-01T04:16:44;18.95;;;12.05;;
46158;SDS011;31888;44.512;26.104;2023-05-01T04:19:10;20.00;;;12.10;;
46158;SDS011;31888;44.512;26.104;2023-05-01T04:21:38;18.27;;;12.15;;
46158;SDS011;31888;44.512;26.104;2023-05-01T04:24:04;16.77;;;10.98;;
46158;SDS011;31888;44.512;26.104;2023-05-01T04:26:29;23.08;;;11.77;;
46158;SDS011;31888;44.512;26.104;2023-05-01T04:28:55;15.93;;;11.35;;
46158;SDS011;31888;44.512;26.104;2023-05-01T04:31:20;20.23;;;11.35;;
46158;SDS011;31888;44.512;26.104;2023-05-01T04:33:45;14.40;;;10.05;;
46158;SDS011;31888;44.512;26.104;2023-05-01T04:36:11;14.35;;;10.40;;
46158;SDS011;31888;44.512;26.104;2023-05-01T04:38:37;14.82;;;10.20;;
46158;SDS011;31888;44.512;26.104;2023-05-01T04:41:03;15.45;;;9.65;;
46158;SDS011;31888;44.512;26.104;2023-05-01T04:43:28;16.20;;;9.02;;
46158;SDS011;31888;44.512;26.104;2023-05-01T04:45:54;13.68;;;8.57;;
46158;SDS011;31888;44.512;26.104;2023-05-01T04:48:19;15.02;;;8.45;;
46158;SDS011;31888;44.512;26.104;2023-05-01T04:50:44;13.43;;;7.93;;
46158;SDS011;31888;44.512;26.104;2023-05-01T04:53:10;13.07;;;7.50;;
46158;SDS011;31888;44.512;26.104;2023-05-01T04:55:37;13.63;;;7.95;;
46158;SDS011;31888;44.512;26.104;2023-05-01T04:58:07;11.05;;;7.05;;
46158;SDS011;31888;44.512;26.104;2023-05-01T05:00:32;9.88;;;7.45;;
46158;SDS011;31888;44.512;26.104;2023-05-01T05:03:00;12.68;;;7.25;;
46158;SDS011;31888;44.512;26.104;2023-05-01T05:05:25;11.18;;;6.90;;
46158;SDS011;31888;44.512;26.104;2023-05-01T05:07:51;12.00;;;7.68;;
46158;SDS011;31888;44.512;26.104;2023-05-01T05:10:25;16.90;;;6.95;;
46158;SDS011;31888;44.512;26.104;2023-05-01T05:13:09;8.60;;;6.25;;
46158;SDS011;31888;44.512;26.104;2023-05-01T05:15:34;13.82;;;6.60;;
46158;SDS011;31888;44.512;26.104;2023-05-01T05:18:01;9.65;;;5.45;;
46158;SDS011;31888;44.512;26.104;2023-05-01T05:20:28;16.42;;;5.95;;
46158;SDS011;31888;44.512;26.104;2023-05-01T05:22:53;8.48;;;5.30;;
46158;SDS011;31888;44.512;26.104;2023-05-01T05:25:20;12.63;;;6.00;;
46158;SDS011;31888;44.512;26.104;2023-05-01T05:27:47;17.50;;;6.32;;
46158;SDS011;31888;44.512;26.104;2023-05-01T05:30:12;11.95;;;6.57;;
46158;SDS011;31888;44.512;26.104;2023-05-01T05:32:39;11.50;;;6.18;;
46158;SDS011;31888;44.512;26.104;2023-05-01T05:35:04;10.10;;;6.10;;
46158;SDS011;31888;44.512;26.104;2023-05-01T05:37:31;13.77;;;6.57;;
46158;SDS011;31888;44.512;26.104;2023-05-01T05:39:57;15.63;;;6.60;;
46158;SDS011;31888;44.512;26.104;2023-05-01T05:42:25;13.50;;;6.00;;
46158;SDS011;31888;44.512;26.104;2023-05-01T05:44:52;10.35;;;6.50;;
46158;SDS011;31888;44.512;26.104;2023-05-01T05:47:17;11.60;;;6.63;;
46158;SDS011;31888;44.512;26.104;2023-05-01T05:49:42;8.63;;;6.93;;
46158;SDS011;31888;44.512;26.104;2023-05-01T05:52:07;11.38;;;6.45;;
46158;SDS011;31888;44.512;26.104;2023-05-01T05:54:35;9.55;;;6.32;;
46158;SDS011;31888;44.512;26.104;2023-05-01T05:57:00;10.43;;;6.50;;
46158;SDS011;31888;44.512;26.104;2023-05-01T05:59:27;13.02;;;7.50;;
46158;SDS011;31888;44.512;26.104;2023-05-01T06:01:56;12.68;;;7.95;;
46158;SDS011;31888;44.512;26.104;2023-05-01T06:04:21;15.07;;;8.05;;
46158;SDS011;31888;44.512;26.104;2023-05-01T06:06:47;13.30;;;7.93;;
46158;SDS011;31888;44.512;26.104;2023-05-01T06:09:12;11.23;;;6.70;;
46158;SDS011;31888;44.512;26.104;2023-05-01T06:11:39;12.95;;;6.95;;
46158;SDS011;31888;44.512;26.104;2023-05-01T06:14:04;16.23;;;8.30;;
46158;SDS011;31888;44.512;26.104;2023-05-01T06:16:29;14.50;;;7.90;;
46158;SDS011;31888;44.512;26.104;2023-05-01T06:19:22;14.30;;;7.53;;
46158;SDS011;31888;44.512;26.104;2023-05-01T06:22:03;12.60;;;7.10;;
46158;SDS011;31888;44.512;26.104;2023-05-01T06:24:35;12.88;;;7.50;;
46158;SDS011;31888;44.512;26.104;2023-05-01T06:27:03;15.90;;;8.13;;
46158;SDS011;31888;44.512;26.104;2023-05-01T06:29:28;11.68;;;7.35;;
46158;SDS011;31888;44.512;26.104;2023-05-01T06:31:53;13.23;;;8.05;;
46158;SDS011;31888;44.512;26.104;2023-05-01T06:34:19;13.68;;;8.18;;
46158;SDS011;31888;44.512;26.104;2023-05-01T06:36:47;11.95;;;6.88;;
46158;SDS011;31888;44.512;26.104;2023-05-01T06:39:12;13.68;;;7.90;;
46158;SDS011;31888;44.512;26.104;2023-05-01T06:41:40;12.73;;;7.78;;
46158;SDS011;31888;44.512;26.104;2023-05-01T06:44:04;17.70;;;7.00;;
46158;SDS011;31888;44.512;26.104;2023-05-01T06:46:29;12.65;;;7.63;;
46158;SDS011;31888;44.512;26.104;2023-05-01T06:48:55;12.93;;;7.70;;
46158;SDS011;31888;44.512;26.104;2023-05-01T06:51:21;12.60;;;7.25;;
46158;SDS011;31888;44.512;26.104;2023-05-01T06:53:46;14.70;;;7.25;;
46158;SDS011;31888;44.512;26.104;2023-05-01T06:56:11;11.70;;;7.18;;
46158;SDS011;31888;44.512;26.104;2023-05-01T06:58:36;11.50;;;7.13;;
46158;SDS011;31888;44.512;26.104;2023-05-01T07:01:03;9.57;;;6.75;;
46158;SDS011;31888;44.512;26.104;2023-05-01T07:03:28;15.40;;;7.20;;
46158;SDS011;31888;44.512;26.104;2023-05-01T07:05:53;12.90;;;7.40;;
46158;SDS011;31888;44.512;26.104;2023-05-01T07:08:19;10.02;;;6.72;;
46158;SDS011;31888;44.512;26.104;2023-05-01T07:10:45;11.50;;;7.10;;
46158;SDS011;31888;44.512;26.104;2023-05-01T07:13:11;12.63;;;7.53;;
46158;SDS011;31888;44.512;26.104;2023-05-01T07:15:36;12.63;;;6.72;;
46158;SDS011;31888;44.512;26.104;2023-05-01T07:18:00;12.75;;;6.82;;
46158;SDS011;31888;44.512;26.104;2023-05-01T07:20:27;10.57;;;6.65;;
46158;SDS011;31888;44.512;26.104;2023-05-01T07:22:52;14.75;;;6.20;;
46158;SDS011;31888;44.512;26.104;2023-05-01T07:25:19;12.45;;;6.30;;
46158;SDS011;31888;44.512;26.104;2023-05-01T07:27:43;8.93;;;5.90;;
46158;SDS011;31888;44.512;26.104;2023-05-01T07:30:09;11.27;;;6.40;;
46158;SDS011;31888;44.512;26.104;2023-05-01T07:32:34;10.48;;;5.82;;
46158;SDS011;31888;44.512;26.104;2023-05-01T07:34:59;9.32;;;6.47;;
46158;SDS011;31888;44.512;26.104;2023-05-01T07:37:25;13.57;;;7.47;;
46158;SDS011;31888;44.512;26.104;2023-05-01T07:39:50;14.30;;;7.15;;
46158;SDS011;31888;44.512;26.104;2023-05-01T07:42:16;11.98;;;6.43;;
46158;SDS011;31888;44.512;26.104;2023-05-01T07:44:41;15.10;;;8.07;;
46158;SDS011;31888;44.512;26.104;2023-05-01T07:47:05;15.15;;;7.38;;
46158;SDS011;31888;44.512;26.104;2023-05-01T07:49:34;11.30;;;7.38;;
46158;SDS011;31888;44.512;26.104;2023-05-01T07:52:00;10.80;;;7.03;;
46158;SDS011;31888;44.512;26.104;2023-05-01T07:54:24;14.57;;;6.88;;
46158;SDS011;31888;44.512;26.104;2023-05-01T07:56:49;11.35;;;8.13;;
46158;SDS011;31888;44.512;26.104;2023-05-01T07:59:15;13.48;;;7.63;;
46158;SDS011;31888;44.512;26.104;2023-05-01T08:01:40;11.32;;;7.28;;
46158;SDS011;31888;44.512;26.104;2023-05-01T08:04:07;15.57;;;7.55;;
46158;SDS011;31888;44.512;26.104;2023-05-01T08:06:32;15.18;;;7.25;;
46158;SDS011;31888;44.512;26.104;2023-05-01T08:08:57;9.77;;;7.18;;
46158;SDS011;31888;44.512;26.104;2023-05-01T08:11:21;9.85;;;6.78;;
46158;SDS011;31888;44.512;26.104;2023-05-01T08:13:46;10.85;;;6.53;;
46158;SDS011;31888;44.512;26.104;2023-05-01T08:16:13;12.57;;;7.28;;
46158;SDS011;31888;44.512;26.104;2023-05-01T08:18:37;18.77;;;7.95;;
46158;SDS011;31888;44.512;26.104;2023-05-01T08:21:03;11.43;;;6.95;;
46158;SDS011;31888;44.512;26.104;2023-05-01T08:23:28;14.73;;;8.13;;
46158;SDS011;31888;44.512;26.104;2023-05-01T08:25:53;11.43;;;7.15;;
46158;SDS011;31888;44.512;26.104;2023-05-01T08:28:18;12.02;;;7.53;;
46158;SDS011;31888;44.512;26.104;2023-05-01T08:30:44;9.55;;;6.65;;
46158;SDS011;31888;44.512;26.104;2023-05-01T08:33:12;11.85;;;7.40;;
46158;SDS011;31888;44.512;26.104;2023-05-01T08:35:36;9.63;;;7.65;;
46158;SDS011;31888;44.512;26.104;2023-05-01T08:38:01;10.98;;;7.57;;
46158;SDS011;31888;44.512;26.104;2023-05-01T08:40:25;10.90;;;7.00;;
46158;SDS011;31888;44.512;26.104;2023-05-01T08:42:54;11.27;;;5.85;;
46158;SDS011;31888;44.512;26.104;2023-05-01T08:45:18;11.07;;;6.55;;
46158;SDS011;31888;44.512;26.104;2023-05-01T08:47:45;9.52;;;7.13;;
46158;SDS011;31888;44.512;26.104;2023-05-01T08:50:15;9.52;;;6.55;;
46158;SDS011;31888;44.512;26.104;2023-05-01T08:52:41;12.00;;;6.75;;
46158;SDS011;31888;44.512;26.104;2023-05-01T08:55:07;10.30;;;6.75;;
46158;SDS011;31888;44.512;26.104;2023-05-01T08:57:34;9.88;;;6.57;;
46158;SDS011;31888;44.512;26.104;2023-05-01T09:00:00;13.02;;;7.05;;
46158;SDS011;31888;44.512;26.104;2023-05-01T09:02:28;12.18;;;6.40;;
46158;SDS011;31888;44.512;26.104;2023-05-01T09:04:53;11.25;;;7.10;;
46158;SDS011;31888;44.512;26.104;2023-05-01T09:07:19;12.23;;;6.70;;
46158;SDS011;31888;44.512;26.104;2023-05-01T09:09:44;9.65;;;7.38;;
46158;SDS011;31888;44.512;26.104;2023-05-01T09:12:11;10.02;;;6.97;;
46158;SDS011;31888;44.512;26.104;2023-05-01T09:14:41;9.77;;;6.85;;
46158;SDS011;31888;44.512;26.104;2023-05-01T09:17:06;11.07;;;6.95;;
46158;SDS011;31888;44.512;26.104;2023-05-01T09:19:31;11.75;;;7.55;;
46158;SDS011;31888;44.512;26.104;2023-05-01T09:21:56;9.45;;;6.82;;
46158;SDS011;31888;44.512;26.104;2023-05-01T09:24:23;10.77;;;6.90;;
46158;SDS011;31888;44.512;26.104;2023-05-01T09:26:48;10.50;;;6.80;;
46158;SDS011;31888;44.512;26.104;2023-05-01T09:29:13;11.30;;;6.07;;
46158;SDS011;31888;44.512;26.104;2023-05-01T09:32:11;8.43;;;5.88;;
46158;SDS011;31888;44.512;26.104;2023-05-01T09:34:38;10.93;;;5.30;;
46158;SDS011;31888;44.512;26.104;2023-05-01T09:37:07;7.32;;;5.95;;
46158;SDS011;31888;44.512;26.104;2023-05-01T09:39:49;9.82;;;5.38;;
46158;SDS011;31888;44.512;26.104;2023-05-01T09:42:27;10.50;;;5.57;;
46158;SDS011;31888;44.512;26.104;2023-05-01T09:44:55;8.63;;;5.30;;
46158;SDS011;31888;44.512;26.104;2023-05-01T09:47:19;6.72;;;4.60;;
46158;SDS011;31888;44.512;26.104;2023-05-01T09:49:45;7.40;;;4.72;;
46158;SDS011;31888;44.512;26.104;2023-05-01T09:52:12;10.32;;;4.80;;
46158;SDS011;31888;44.512;26.104;2023-05-01T09:54:37;5.68;;;4.75;;
46158;SDS011;31888;44.512;26.104;2023-05-01T09:57:03;8.68;;;4.93;;
46158;SDS011;31888;44.512;26.104;2023-05-01T09:59:27;8.20;;;5.03;;
46158;SDS011;31888;44.512;26.104;2023-05-01T10:01:55;6.45;;;4.30;;
46158;SDS011;31888;44.512;26.104;2023-05-01T10:04:28;8.88;;;4.68;;
46158;SDS011;31888;44.512;26.104;2023-05-01T10:06:55;9.57;;;5.05;;
46158;SDS011;31888;44.512;26.104;2023-05-01T10:09:25;7.80;;;4.13;;
46158;SDS011;31888;44.512;26.104;2023-05-01T10:11:52;10.35;;;4.22;;
46158;SDS011;31888;44.512;26.104;2023-05-01T10:14:19;6.05;;;4.90;;
46158;SDS011;31888;44.512;26.104;2023-05-01T10:16:45;8.07;;;4.32;;
46158;SDS011;31888;44.512;26.104;2023-05-01T10:19:12;9.82;;;4.82;;
46158;SDS011;31888;44.512;26.104;2023-05-01T10:21:39;6.53;;;4.95;;
46158;SDS011;31888;44.512;26.104;2023-05-01T10:24:04;6.38;;;4.10;;
46158;SDS011;31888;44.512;26.104;2023-05-01T10:26:31;7.90;;;5.40;;
46158;SDS011;31888;44.512;26.104;2023-05-01T10:28:57;8.63;;;4.32;;
46158;SDS011;31888;44.512;26.104;2023-05-01T10:31:24;7.38;;;4.68;;
46158;SDS011;31888;44.512;26.104;2023-05-01T10:33:50;9.55;;;5.32;;
46158;SDS011;31888;44.512;26.104;2023-05-01T10:36:18;9.48;;;4.68;;
46158;SDS011;31888;44.512;26.104;2023-05-01T10:38:45;9.20;;;5.65;;
46158;SDS011;31888;44.512;26.104;2023-05-01T10:41:10;10.35;;;4.72;;
46158;SDS011;31888;44.512;26.104;2023-05-01T10:43:35;12.77;;;4.97;;
46158;SDS011;31888;44.512;26.104;2023-05-01T10:48:52;13.95;;;5.50;;
46158;SDS011;31888;44.512;26.104;2023-05-01T10:51:19;9.80;;;5.55;;
46158;SDS011;31888;44.512;26.104;2023-05-01T10:53:49;10.30;;;4.47;;
46158;SDS011;31888;44.512;26.104;2023-05-01T10:56:46;10.07;;;5.32;;
46158;SDS011;31888;44.512;26.104;2023-05-01T10:59:11;7.22;;;4.53;;
46158;SDS011;31888;44.512;26.104;2023-05-01T11:01:36;8.50;;;4.00;;
46158;SDS011;31888;44.512;26.104;2023-05-01T11:04:02;6.55;;;3.88;;
46158;SDS011;31888;44.512;26.104;2023-05-01T11:06:31;8.43;;;5.20;;
46158;SDS011;31888;44.512;26.104;2023-05-01T11:08:56;11.85;;;5.15;;
46158;SDS011;31888;44.512;26.104;2023-05-01T11:14:09;7.00;;;4.65;;
46158;SDS011;31888;44.512;26.104;2023-05-01T11:16:41;8.57;;;4.57;;
46158;SDS011;31888;44.512;26.104;2023-05-01T11:19:09;8.48;;;4.32;;
46158;SDS011;31888;44.512;26.104;2023-05-01T11:21:36;9.93;;;5.55;;
46158;SDS011;31888;44.512;26.104;2023-05-01T11:24:04;7.70;;;4.63;;
46158;SDS011;31888;44.512;26.104;2023-05-01T11:26:30;8.82;;;4.93;;
46158;SDS011;31888;44.512;26.104;2023-05-01T11:28:56;7.28;;;4.75;;
46158;SDS011;31888;44.512;26.104;2023-05-01T11:31:22;6.85;;;4.80;;
46158;SDS011;31888;44.512;26.104;2023-05-01T11:33:48;8.48;;;4.82;;
46158;SDS011;31888;44.512;26.104;2023-05-01T11:36:13;7.43;;;4.38;;
46158;SDS011;31888;44.512;26.104;2023-05-01T11:38:49;9.45;;;4.57;;
46158;SDS011;31888;44.512;26.104;2023-05-01T11:41:14;10.70;;;4.50;;
46158;SDS011;31888;44.512;26.104;2023-05-01T11:43:49;9.40;;;5.20;;
46158;SDS011;31888;44.512;26.104;2023-05-01T11:46:16;8.02;;;4.70;;
46158;SDS011;31888;44.512;26.104;2023-05-01T11:48:47;10.75;;;8.05;;
46158;SDS011;31888;44.512;26.104;2023-05-01T11:51:12;12.30;;;7.47;;
46158;SDS011;31888;44.512;26.104;2023-05-01T11:53:37;7.65;;;5.13;;
46158;SDS011;31888;44.512;26.104;2023-05-01T11:56:04;7.38;;;4.60;;
46158;SDS011;31888;44.512;26.104;2023-05-01T11:58:48;6.65;;;5.05;;
46158;SDS011;31888;44.512;26.104;2023-05-01T12:01:13;11.00;;;5.95;;
46158;SDS011;31888;44.512;26.104;2023-05-01T12:03:39;8.98;;;5.10;;
46158;SDS011;31888;44.512;26.104;2023-05-01T12:06:05;7.55;;;4.55;;
46158;SDS011;31888;44.512;26.104;2023-05-01T12:08:30;7.03;;;4.50;;
46158;SDS011;31888;44.512;26.104;2023-05-01T12:10:55;7.80;;;5.50;;
46158;SDS011;31888;44.512;26.104;2023-05-01T12:13:21;7.53;;;5.20;;
46158;SDS011;31888;44.512;26.104;2023-05-01T12:15:48;9.40;;;5.28;;
46158;SDS011;31888;44.512;26.104;2023-05-01T12:18:14;6.85;;;5.28;;
46158;SDS011;31888;44.512;26.104;2023-05-01T12:20:40;11.20;;;5.43;;
46158;SDS011;31888;44.512;26.104;2023-05-01T12:23:06;9.18;;;5.57;;
46158;SDS011;31888;44.512;26.104;2023-05-01T12:25:33;13.23;;;6.82;;
46158;SDS011;31888;44.512;26.104;2023-05-01T12:27:58;8.55;;;5.50;;
46158;SDS011;31888;44.512;26.104;2023-05-01T12:30:25;6.47;;;5.13;;
46158;SDS011;31888;44.512;26.104;2023-05-01T12:32:51;8.00;;;5.20;;
46158;SDS011;31888;44.512;26.104;2023-05-01T12:35:16;12.95;;;6.10;;
46158;SDS011;31888;44.512;26.104;2023-05-01T12:37:41;14.32;;;8.55;;
46158;SDS011;31888;44.512;26.104;2023-05-01T12:40:06;15.45;;;8.60;;
46158;SDS011;31888;44.512;26.104;2023-05-01T12:42:36;9.05;;;5.40;;
46158;SDS011;31888;44.512;26.104;2023-05-01T12:45:00;8.10;;;5.03;;
46158;SDS011;31888;44.512;26.104;2023-05-01T12:47:35;9.23;;;5.13;;
46158;SDS011;31888;44.512;26.104;2023-05-01T12:50:00;10.32;;;5.28;;
46158;SDS011;31888;44.512;26.104;2023-05-01T12:52:26;8.85;;;5.05;;
46158;SDS011;31888;44.512;26.104;2023-05-01T12:54:51;9.20;;;4.50;;
46158;SDS011;31888;44.512;26.104;2023-05-01T12:57:25;9.00;;;5.57;;
46158;SDS011;31888;44.512;26.104;2023-05-01T12:59:56;11.80;;;5.05;;
46158;SDS011;31888;44.512;26.104;2023-05-01T13:02:29;7.70;;;5.15;;
46158;SDS011;31888;44.512;26.104;2023-05-01T13:05:05;9.35;;;5.45;;
46158;SDS011;31888;44.512;26.104;2023-05-01T13:07:33;6.90;;;4.80;;
46158;SDS011;31888;44.512;26.104;2023-05-01T13:09:58;8.05;;;5.22;;
46158;SDS011;31888;44.512;26.104;2023-05-01T13:12:25;8.98;;;5.32;;
46158;SDS011;31888;44.512;26.104;2023-05-01T13:14:50;9.05;;;4.82;;
46158;SDS011;31888;44.512;26.104;2023-05-01T13:17:21;9.23;;;4.75;;
46158;SDS011;31888;44.512;26.104;2023-05-01T13:19:51;9.05;;;5.00;;
46158;SDS011;31888;44.512;26.104;2023-05-01T13:22:19;7.57;;;5.15;;
46158;SDS011;31888;44.512;26.104;2023-05-01T13:24:52;6.47;;;4.30;;
46158;SDS011;31888;44.512;26.104;2023-05-01T13:27:19;7.10;;;4.80;;
46158;SDS011;31888;44.512;26.104;2023-05-01T13:29:49;13.25;;;5.05;;
46158;SDS011;31888;44.512;26.104;2023-05-01T13:32:17;9.18;;;5.68;;
46158;SDS011;31888;44.512;26.104;2023-05-01T13:34:42;8.90;;;4.85;;
46158;SDS011;31888;44.512;26.104;2023-05-01T13:37:08;6.93;;;4.68;;
46158;SDS011;31888;44.512;26.104;2023-05-01T13:39:36;6.85;;;5.13;;
46158;SDS011;31888;44.512;26.104;2023-05-01T13:42:04;10.95;;;5.10;;
46158;SDS011;31888;44.512;26.104;2023-05-01T13:44:29;6.28;;;4.63;;
46158;SDS011;31888;44.512;26.104;2023-05-01T13:46:56;11.85;;;4.45;;
46158;SDS011;31888;44.512;26.104;2023-05-01T13:49:21;13.40;;;5.38;;
46158;SDS011;31888;44.512;26.104;2023-05-01T13:51:46;8.60;;;5.57;;
46158;SDS011;31888;44.512;26.104;2023-05-01T13:54:14;7.60;;;4.45;;
46158;SDS011;31888;44.512;26.104;2023-05-01T13:56:41;9.02;;;5.43;;
46158;SDS011;31888;44.512;26.104;2023-05-01T13:59:06;6.95;;;4.97;;
46158;SDS011;31888;44.512;26.104;2023-05-01T14:01:35;11.82;;;6.38;;
46158;SDS011;31888;44.512;26.104;2023-05-01T14:04:06;16.27;;;6.85;;
46158;SDS011;31888;44.512;26.104;2023-05-01T14:06:32;15.07;;;5.53;;
46158;SDS011;31888;44.512;26.104;2023-05-01T14:09:00;13.15;;;5.30;;
46158;SDS011;31888;44.512;26.104;2023-05-01T14:11:27;7.43;;;4.78;;
46158;SDS011;31888;44.512;26.104;2023-05-01T14:13:54;6.72;;;4.40;;
46158;SDS011;31888;44.512;26.104;2023-05-01T14:16:26;10.48;;;5.93;;
46158;SDS011;31888;44.512;26.104;2023-05-01T14:18:55;11.40;;;5.25;;
46158;SDS011;31888;44.512;26.104;2023-05-01T14:21:22;14.75;;;6.78;;
46158;SDS011;31888;44.512;26.104;2023-05-01T14:23:49;12.30;;;5.72;;
46158;SDS011;31888;44.512;26.104;2023-05-01T14:26:16;9.18;;;5.80;;
46158;SDS011;31888;44.512;26.104;2023-05-01T14:28:41;8.70;;;5.30;;
46158;SDS011;31888;44.512;26.104;2023-05-01T14:31:22;10.43;;;4.63;;
46158;SDS011;31888;44.512;26.104;2023-05-01T14:33:49;6.95;;;4.35;;